sensor_id;sensor_type;location;lat;lon;timestamp;P1;durP1;ratioP1;P2;durP2;ratioP2
16270;SDS011;8243;49.048;8.396;2023-08-31T00:00:41;4.10;;;3.60;;
16270;SDS011;8243;49.048;8.396;2023-08-31T00:03:07;4.77;;;3.93;;
16270;SDS011;8243;49.048;8.396;2023-08-31T00:05:38;4.17;;;3.77;;
16270;SDS011;8243;49.048;8.396;2023-08-31T00:08:06;4.30;;;3.90;;
16270;SDS011;8243;49.048;8.396;2023-08-31T00:10:32;6.07;;;4.17;;
16270;SDS011;8243;49.048;8.396;2023-08-31T00:12:59;4.73;;;4.27;;
16270;SDS011;8243;49.048;8.396;2023-08-31T00:15:24;4.50;;;4.10;;
16270;SDS011;8243;49.048;8.396;2023-08-31T00:17:50;4.27;;;3.87;;
16270;SDS011;8243;49.048;8.396;2023-08-31T00:20:15;7.00;;;4.47;;
16270;SDS011;8243;49.048;8.396;2023-08-31T00:22:42;5.37;;;4.00;;
16270;SDS011;8243;49.048;8.396;2023-08-31T00:25:07;5.20;;;4.40;;
16270;SDS011;8243;49.048;8.396;2023-08-31T00:27:34;6.40;;;4.60;;
16270;SDS011;8243;49.048;8.396;2023-08-31T00:30:04;4.93;;;4.30;;
16270;SDS011;8243;49.048;8.396;2023-08-31T00:32:33;5.00;;;4.50;;
16270;SDS011;8243;49.048;8.396;2023-08-31T00:34:59;6.13;;;4.67;;
16270;SDS011;8243;49.048;8.396;2023-08-31T00:37:25;5.23;;;4.40;;
16270;SDS011;8243;49.048;8.396;2023-08-31T00:39:50;5.07;;;4.57;;
16270;SDS011;8243;49.048;8.396;2023-08-31T00:42:17;4.87;;;4.47;;
16270;SDS011;8243;49.048;8.396;2023-08-31T00:44:43;6.60;;;4.40;;
16270;SDS011;8243;49.048;8.396;2023-08-31T00:47:12;6.20;;;4.40;;
16270;SDS011;8243;49.048;8.396;2023-08-31T00:49:38;4.90;;;4.47;;
16270;SDS011;8243;49.048;8.396;2023-08-31T00:52:05;6.37;;;4.50;;
16270;SDS011;8243;49.048;8.396;2023-08-31T00:54:32;5.73;;;4.57;;
16270;SDS011;8243;49.048;8.396;2023-08-31T00:56:59;5.17;;;4.67;;
16270;SDS011;8243;49.048;8.396;2023-08-31T00:59:26;7.30;;;4.60;;
16270;SDS011;8243;49.048;8.396;2023-08-31T01:04:43;6.30;;;4.70;;
16270;SDS011;8243;49.048;8.396;2023-08-31T01:07:31;5.77;;;4.80;;
16270;SDS011;8243;49.048;8.396;2023-08-31T01:10:02;9.37;;;4.90;;
16270;SDS011;8243;49.048;8.396;2023-08-31T01:12:32;5.83;;;5.27;;
16270;SDS011;8243;49.048;8.396;2023-08-31T01:15:11;5.47;;;4.90;;
16270;SDS011;8243;49.048;8.396;2023-08-31T01:17:43;6.93;;;5.00;;
16270;SDS011;8243;49.048;8.396;2023-08-31T01:20:13;6.67;;;5.13;;
16270;SDS011;8243;49.048;8.396;2023-08-31T01:25:20;5.27;;;4.77;;
16270;SDS011;8243;49.048;8.396;2023-08-31T01:27:46;5.53;;;4.97;;
16270;SDS011;8243;49.048;8.396;2023-08-31T01:30:12;5.63;;;5.13;;
16270;SDS011;8243;49.048;8.396;2023-08-31T01:32:43;7.10;;;5.13;;
16270;SDS011;8243;49.048;8.396;2023-08-31T01:35:10;6.07;;;5.00;;
16270;SDS011;8243;49.048;8.396;2023-08-31T01:40:08;6.80;;;5.10;;
16270;SDS011;8243;49.048;8.396;2023-08-31T01:42:45;11.33;;;5.47;;
16270;SDS011;8243;49.048;8.396;2023-08-31T01:45:14;8.90;;;5.87;;
16270;SDS011;8243;49.048;8.396;2023-08-31T01:47:46;6.67;;;5.83;;
16270;SDS011;8243;49.048;8.396;2023-08-31T01:50:12;7.03;;;5.60;;
16270;SDS011;8243;49.048;8.396;2023-08-31T01:52:38;6.93;;;5.80;;
16270;SDS011;8243;49.048;8.396;2023-08-31T01:55:04;8.53;;;6.10;;
16270;SDS011;8243;49.048;8.396;2023-08-31T01:57:30;7.03;;;5.63;;
16270;SDS011;8243;49.048;8.396;2023-08-31T01:59:57;8.40;;;5.90;;
16270;SDS011;8243;49.048;8.396;2023-08-31T02:02:23;8.67;;;6.07;;
16270;SDS011;8243;49.048;8.396;2023-08-31T02:04:50;7.07;;;5.17;;
16270;SDS011;8243;49.048;8.396;2023-08-31T02:07:16;5.33;;;4.83;;
16270;SDS011;8243;49.048;8.396;2023-08-31T02:09:42;6.37;;;4.20;;
16270;SDS011;8243;49.048;8.396;2023-08-31T02:12:08;6.50;;;4.67;;
16270;SDS011;8243;49.048;8.396;2023-08-31T02:14:37;4.70;;;4.07;;
16270;SDS011;8243;49.048;8.396;2023-08-31T02:17:04;5.43;;;4.17;;
16270;SDS011;8243;49.048;8.396;2023-08-31T02:19:29;6.13;;;4.47;;
16270;SDS011;8243;49.048;8.396;2023-08-31T02:21:55;6.93;;;3.77;;
16270;SDS011;8243;49.048;8.396;2023-08-31T02:24:21;6.30;;;4.20;;
16270;SDS011;8243;49.048;8.396;2023-08-31T02:26:47;7.37;;;4.17;;
16270;SDS011;8243;49.048;8.396;2023-08-31T02:29:14;6.77;;;3.70;;
16270;SDS011;8243;49.048;8.396;2023-08-31T02:31:40;6.17;;;3.70;;
16270;SDS011;8243;49.048;8.396;2023-08-31T02:34:06;4.40;;;4.00;;
16270;SDS011;8243;49.048;8.396;2023-08-31T02:36:32;5.77;;;4.43;;
16270;SDS011;8243;49.048;8.396;2023-08-31T02:38:58;5.83;;;4.00;;
16270;SDS011;8243;49.048;8.396;2023-08-31T02:41:24;4.80;;;3.90;;
16270;SDS011;8243;49.048;8.396;2023-08-31T02:43:50;7.37;;;4.63;;
16270;SDS011;8243;49.048;8.396;2023-08-31T02:46:17;6.50;;;4.80;;
16270;SDS011;8243;49.048;8.396;2023-08-31T02:48:43;5.23;;;4.23;;
16270;SDS011;8243;49.048;8.396;2023-08-31T02:51:09;6.60;;;4.43;;
16270;SDS011;8243;49.048;8.396;2023-08-31T02:53:35;5.70;;;4.17;;
16270;SDS011;8243;49.048;8.396;2023-08-31T02:56:01;5.50;;;4.20;;
16270;SDS011;8243;49.048;8.396;2023-08-31T02:58:27;7.87;;;4.90;;
16270;SDS011;8243;49.048;8.396;2023-08-31T03:00:52;6.27;;;4.40;;
16270;SDS011;8243;49.048;8.396;2023-08-31T03:03:18;4.83;;;4.43;;
16270;SDS011;8243;49.048;8.396;2023-08-31T03:05:45;6.33;;;4.07;;
16270;SDS011;8243;49.048;8.396;2023-08-31T03:08:11;4.43;;;4.03;;
16270;SDS011;8243;49.048;8.396;2023-08-31T03:10:37;7.60;;;4.60;;
16270;SDS011;8243;49.048;8.396;2023-08-31T03:13:04;7.40;;;4.80;;
16270;SDS011;8243;49.048;8.396;2023-08-31T03:15:31;5.10;;;4.30;;
16270;SDS011;8243;49.048;8.396;2023-08-31T03:17:59;4.77;;;4.37;;
16270;SDS011;8243;49.048;8.396;2023-08-31T03:20:25;5.27;;;4.40;;
16270;SDS011;8243;49.048;8.396;2023-08-31T03:22:51;5.33;;;3.80;;
16270;SDS011;8243;49.048;8.396;2023-08-31T03:25:17;6.23;;;3.97;;
16270;SDS011;8243;49.048;8.396;2023-08-31T03:27:49;5.60;;;4.07;;
16270;SDS011;8243;49.048;8.396;2023-08-31T03:30:15;6.13;;;4.10;;
16270;SDS011;8243;49.048;8.396;2023-08-31T03:32:41;5.70;;;4.27;;
16270;SDS011;8243;49.048;8.396;2023-08-31T03:35:07;5.00;;;4.50;;
16270;SDS011;8243;49.048;8.396;2023-08-31T03:37:33;5.73;;;4.40;;
16270;SDS011;8243;49.048;8.396;2023-08-31T03:39:59;6.57;;;4.90;;
16270;SDS011;8243;49.048;8.396;2023-08-31T03:42:24;4.83;;;4.37;;
16270;SDS011;8243;49.048;8.396;2023-08-31T03:44:50;9.97;;;4.43;;
16270;SDS011;8243;49.048;8.396;2023-08-31T03:47:15;5.17;;;4.67;;
16270;SDS011;8243;49.048;8.396;2023-08-31T03:49:41;6.00;;;4.23;;
16270;SDS011;8243;49.048;8.396;2023-08-31T03:52:06;5.80;;;4.60;;
16270;SDS011;8243;49.048;8.396;2023-08-31T03:54:33;7.20;;;4.87;;
16270;SDS011;8243;49.048;8.396;2023-08-31T03:56:58;5.03;;;4.17;;
16270;SDS011;8243;49.048;8.396;2023-08-31T03:59:24;7.23;;;4.90;;
16270;SDS011;8243;49.048;8.396;2023-08-31T04:01:50;6.13;;;4.90;;
16270;SDS011;8243;49.048;8.396;2023-08-31T04:04:15;7.53;;;4.37;;
16270;SDS011;8243;49.048;8.396;2023-08-31T04:06:41;5.77;;;4.80;;
16270;SDS011;8243;49.048;8.396;2023-08-31T04:09:07;7.83;;;4.70;;
16270;SDS011;8243;49.048;8.396;2023-08-31T04:11:32;6.40;;;4.57;;
16270;SDS011;8243;49.048;8.396;2023-08-31T04:13:59;6.90;;;4.60;;
16270;SDS011;8243;49.048;8.396;2023-08-31T04:16:26;5.17;;;4.50;;
16270;SDS011;8243;49.048;8.396;2023-08-31T04:18:54;9.40;;;4.83;;
16270;SDS011;8243;49.048;8.396;2023-08-31T04:21:20;5.63;;;5.03;;
16270;SDS011;8243;49.048;8.396;2023-08-31T04:23:45;7.63;;;4.40;;
16270;SDS011;8243;49.048;8.396;2023-08-31T04:26:11;6.13;;;4.63;;
16270;SDS011;8243;49.048;8.396;2023-08-31T04:28:38;5.33;;;4.50;;
16270;SDS011;8243;49.048;8.396;2023-08-31T04:31:05;5.27;;;4.40;;
16270;SDS011;8243;49.048;8.396;2023-08-31T04:33:33;9.33;;;4.37;;
16270;SDS011;8243;49.048;8.396;2023-08-31T04:35:59;6.43;;;4.50;;
16270;SDS011;8243;49.048;8.396;2023-08-31T04:38:25;7.83;;;4.63;;
16270;SDS011;8243;49.048;8.396;2023-08-31T04:40:51;6.30;;;4.67;;
16270;SDS011;8243;49.048;8.396;2023-08-31T04:43:17;5.60;;;4.30;;
16270;SDS011;8243;49.048;8.396;2023-08-31T04:45:42;7.03;;;4.83;;
16270;SDS011;8243;49.048;8.396;2023-08-31T04:48:08;7.60;;;4.37;;
16270;SDS011;8243;49.048;8.396;2023-08-31T04:50:33;4.30;;;3.93;;
16270;SDS011;8243;49.048;8.396;2023-08-31T04:52:59;11.10;;;5.13;;
16270;SDS011;8243;49.048;8.396;2023-08-31T04:55:25;5.00;;;3.93;;
16270;SDS011;8243;49.048;8.396;2023-08-31T04:57:51;8.60;;;3.80;;
16270;SDS011;8243;49.048;8.396;2023-08-31T05:00:17;6.83;;;4.20;;
16270;SDS011;8243;49.048;8.396;2023-08-31T05:02:43;7.50;;;4.50;;
16270;SDS011;8243;49.048;8.396;2023-08-31T05:05:10;6.67;;;4.00;;
16270;SDS011;8243;49.048;8.396;2023-08-31T05:07:35;5.10;;;3.60;;
16270;SDS011;8243;49.048;8.396;2023-08-31T05:10:01;4.20;;;3.80;;
16270;SDS011;8243;49.048;8.396;2023-08-31T05:12:27;4.87;;;3.80;;
16270;SDS011;8243;49.048;8.396;2023-08-31T05:14:53;5.90;;;3.00;;
16270;SDS011;8243;49.048;8.396;2023-08-31T05:17:18;6.23;;;3.90;;
16270;SDS011;8243;49.048;8.396;2023-08-31T05:19:44;6.40;;;3.60;;
16270;SDS011;8243;49.048;8.396;2023-08-31T05:22:12;4.87;;;3.40;;
16270;SDS011;8243;49.048;8.396;2023-08-31T05:24:38;8.47;;;3.43;;
16270;SDS011;8243;49.048;8.396;2023-08-31T05:27:04;7.10;;;4.00;;
16270;SDS011;8243;49.048;8.396;2023-08-31T05:29:30;5.10;;;2.80;;
16270;SDS011;8243;49.048;8.396;2023-08-31T05:31:55;6.07;;;3.47;;
16270;SDS011;8243;49.048;8.396;2023-08-31T05:34:21;5.33;;;3.33;;
16270;SDS011;8243;49.048;8.396;2023-08-31T05:36:48;6.13;;;3.70;;
16270;SDS011;8243;49.048;8.396;2023-08-31T05:39:13;6.20;;;3.20;;
16270;SDS011;8243;49.048;8.396;2023-08-31T05:41:41;5.23;;;3.50;;
16270;SDS011;8243;49.048;8.396;2023-08-31T05:44:07;4.00;;;3.03;;
16270;SDS011;8243;49.048;8.396;2023-08-31T05:46:36;5.80;;;3.20;;
16270;SDS011;8243;49.048;8.396;2023-08-31T05:49:03;4.43;;;2.80;;
16270;SDS011;8243;49.048;8.396;2023-08-31T05:51:29;4.70;;;3.00;;
16270;SDS011;8243;49.048;8.396;2023-08-31T05:53:54;6.83;;;3.30;;
16270;SDS011;8243;49.048;8.396;2023-08-31T05:56:20;7.70;;;2.90;;
16270;SDS011;8243;49.048;8.396;2023-08-31T05:58:45;3.23;;;2.80;;
16270;SDS011;8243;49.048;8.396;2023-08-31T06:01:12;5.87;;;3.10;;
16270;SDS011;8243;49.048;8.396;2023-08-31T06:03:37;5.07;;;3.00;;
16270;SDS011;8243;49.048;8.396;2023-08-31T06:06:03;8.83;;;2.70;;
16270;SDS011;8243;49.048;8.396;2023-08-31T06:08:29;7.50;;;2.90;;
16270;SDS011;8243;49.048;8.396;2023-08-31T06:10:58;2.97;;;2.30;;
16270;SDS011;8243;49.048;8.396;2023-08-31T06:13:24;3.83;;;2.33;;
16270;SDS011;8243;49.048;8.396;2023-08-31T06:15:49;2.67;;;1.87;;
16270;SDS011;8243;49.048;8.396;2023-08-31T06:18:15;3.40;;;2.13;;
16270;SDS011;8243;49.048;8.396;2023-08-31T06:20:40;4.20;;;2.17;;
16270;SDS011;8243;49.048;8.396;2023-08-31T06:23:06;3.50;;;2.30;;
16270;SDS011;8243;49.048;8.396;2023-08-31T06:25:32;3.33;;;2.50;;
16270;SDS011;8243;49.048;8.396;2023-08-31T06:27:57;2.70;;;2.03;;
16270;SDS011;8243;49.048;8.396;2023-08-31T06:30:23;4.90;;;2.90;;
16270;SDS011;8243;49.048;8.396;2023-08-31T06:32:49;3.67;;;2.30;;
16270;SDS011;8243;49.048;8.396;2023-08-31T06:35:15;3.93;;;2.30;;
16270;SDS011;8243;49.048;8.396;2023-08-31T06:37:42;6.07;;;2.60;;
16270;SDS011;8243;49.048;8.396;2023-08-31T06:40:09;5.37;;;2.20;;
16270;SDS011;8243;49.048;8.396;2023-08-31T06:42:38;5.40;;;2.20;;
16270;SDS011;8243;49.048;8.396;2023-08-31T06:45:04;4.07;;;2.30;;
16270;SDS011;8243;49.048;8.396;2023-08-31T06:47:32;4.57;;;2.50;;
16270;SDS011;8243;49.048;8.396;2023-08-31T06:49:58;5.47;;;2.83;;
16270;SDS011;8243;49.048;8.396;2023-08-31T06:52:25;3.27;;;2.40;;
16270;SDS011;8243;49.048;8.396;2023-08-31T06:54:51;4.40;;;2.37;;
16270;SDS011;8243;49.048;8.396;2023-08-31T06:57:20;6.53;;;2.40;;
16270;SDS011;8243;49.048;8.396;2023-08-31T06:59:47;4.27;;;2.60;;
16270;SDS011;8243;49.048;8.396;2023-08-31T07:02:12;4.20;;;2.50;;
16270;SDS011;8243;49.048;8.396;2023-08-31T07:04:38;4.50;;;2.23;;
16270;SDS011;8243;49.048;8.396;2023-08-31T07:07:03;4.77;;;2.20;;
16270;SDS011;8243;49.048;8.396;2023-08-31T07:09:30;3.50;;;1.80;;
16270;SDS011;8243;49.048;8.396;2023-08-31T07:11:56;4.67;;;2.47;;
16270;SDS011;8243;49.048;8.396;2023-08-31T07:14:23;5.97;;;2.33;;
16270;SDS011;8243;49.048;8.396;2023-08-31T07:16:48;2.93;;;2.50;;
16270;SDS011;8243;49.048;8.396;2023-08-31T07:19:15;3.73;;;2.33;;
16270;SDS011;8243;49.048;8.396;2023-08-31T07:21:41;5.80;;;2.27;;
16270;SDS011;8243;49.048;8.396;2023-08-31T07:24:06;3.27;;;2.20;;
16270;SDS011;8243;49.048;8.396;2023-08-31T07:26:32;3.03;;;2.20;;
16270;SDS011;8243;49.048;8.396;2023-08-31T07:29:00;3.50;;;2.30;;
16270;SDS011;8243;49.048;8.396;2023-08-31T07:31:29;4.90;;;2.80;;
16270;SDS011;8243;49.048;8.396;2023-08-31T07:33:55;6.57;;;2.30;;
16270;SDS011;8243;49.048;8.396;2023-08-31T07:36:20;4.43;;;2.20;;
16270;SDS011;8243;49.048;8.396;2023-08-31T07:38:46;3.30;;;2.03;;
16270;SDS011;8243;49.048;8.396;2023-08-31T07:41:12;2.87;;;2.10;;
16270;SDS011;8243;49.048;8.396;2023-08-31T07:43:37;3.97;;;2.13;;
16270;SDS011;8243;49.048;8.396;2023-08-31T07:46:03;3.17;;;2.00;;
16270;SDS011;8243;49.048;8.396;2023-08-31T07:48:28;7.20;;;2.00;;
16270;SDS011;8243;49.048;8.396;2023-08-31T07:50:54;3.97;;;1.90;;
16270;SDS011;8243;49.048;8.396;2023-08-31T07:53:20;4.73;;;2.30;;
16270;SDS011;8243;49.048;8.396;2023-08-31T07:55:52;4.17;;;2.40;;
16270;SDS011;8243;49.048;8.396;2023-08-31T07:58:20;4.70;;;2.00;;
16270;SDS011;8243;49.048;8.396;2023-08-31T08:00:49;2.73;;;1.80;;
16270;SDS011;8243;49.048;8.396;2023-08-31T08:03:17;3.73;;;2.73;;
16270;SDS011;8243;49.048;8.396;2023-08-31T08:05:43;5.90;;;2.10;;
16270;SDS011;8243;49.048;8.396;2023-08-31T08:08:09;3.67;;;2.60;;
16270;SDS011;8243;49.048;8.396;2023-08-31T08:10:36;5.00;;;2.33;;
16270;SDS011;8243;49.048;8.396;2023-08-31T08:13:01;4.97;;;2.40;;
16270;SDS011;8243;49.048;8.396;2023-08-31T08:15:28;3.23;;;1.93;;
16270;SDS011;8243;49.048;8.396;2023-08-31T08:17:55;3.57;;;2.13;;
16270;SDS011;8243;49.048;8.396;2023-08-31T08:20:22;4.80;;;1.80;;
16270;SDS011;8243;49.048;8.396;2023-08-31T08:22:48;3.90;;;2.07;;
16270;SDS011;8243;49.048;8.396;2023-08-31T08:25:18;6.43;;;2.00;;
16270;SDS011;8243;49.048;8.396;2023-08-31T08:27:45;4.03;;;1.67;;
16270;SDS011;8243;49.048;8.396;2023-08-31T08:30:11;3.87;;;1.87;;
16270;SDS011;8243;49.048;8.396;2023-08-31T08:32:39;3.83;;;1.77;;
16270;SDS011;8243;49.048;8.396;2023-08-31T08:35:04;4.07;;;1.80;;
16270;SDS011;8243;49.048;8.396;2023-08-31T08:37:31;5.93;;;2.17;;
16270;SDS011;8243;49.048;8.396;2023-08-31T08:40:00;3.40;;;1.87;;
16270;SDS011;8243;49.048;8.396;2023-08-31T08:42:26;3.50;;;2.07;;
16270;SDS011;8243;49.048;8.396;2023-08-31T08:44:56;3.37;;;2.10;;
16270;SDS011;8243;49.048;8.396;2023-08-31T08:47:22;5.07;;;2.20;;
16270;SDS011;8243;49.048;8.396;2023-08-31T08:49:49;4.23;;;2.43;;
16270;SDS011;8243;49.048;8.396;2023-08-31T08:52:15;3.57;;;1.80;;
16270;SDS011;8243;49.048;8.396;2023-08-31T08:54:41;4.97;;;2.10;;
16270;SDS011;8243;49.048;8.396;2023-08-31T08:57:06;4.10;;;1.83;;
16270;SDS011;8243;49.048;8.396;2023-08-31T08:59:32;3.50;;;1.90;;
16270;SDS011;8243;49.048;8.396;2023-08-31T09:01:58;5.97;;;2.30;;
16270;SDS011;8243;49.048;8.396;2023-08-31T09:04:24;5.03;;;2.40;;
16270;SDS011;8243;49.048;8.396;2023-08-31T09:06:50;5.67;;;2.23;;
16270;SDS011;8243;49.048;8.396;2023-08-31T09:09:17;4.50;;;2.00;;
16270;SDS011;8243;49.048;8.396;2023-08-31T09:11:42;3.93;;;2.27;;
16270;SDS011;8243;49.048;8.396;2023-08-31T09:14:13;4.37;;;2.00;;
16270;SDS011;8243;49.048;8.396;2023-08-31T09:16:44;3.30;;;2.20;;
16270;SDS011;8243;49.048;8.396;2023-08-31T09:19:21;4.40;;;2.17;;
16270;SDS011;8243;49.048;8.396;2023-08-31T09:21:48;3.20;;;2.20;;
16270;SDS011;8243;49.048;8.396;2023-08-31T09:24:15;2.83;;;1.90;;
16270;SDS011;8243;49.048;8.396;2023-08-31T09:26:44;2.93;;;2.20;;
16270;SDS011;8243;49.048;8.396;2023-08-31T09:29:12;4.00;;;2.00;;
16270;SDS011;8243;49.048;8.396;2023-08-31T09:31:41;3.80;;;2.20;;
16270;SDS011;8243;49.048;8.396;2023-08-31T09:34:08;4.37;;;2.10;;
16270;SDS011;8243;49.048;8.396;2023-08-31T09:36:36;4.50;;;1.97;;
16270;SDS011;8243;49.048;8.396;2023-08-31T09:39:03;4.03;;;2.03;;
16270;SDS011;8243;49.048;8.396;2023-08-31T09:41:30;6.03;;;2.17;;
16270;SDS011;8243;49.048;8.396;2023-08-31T09:43:56;7.20;;;2.33;;
16270;SDS011;8243;49.048;8.396;2023-08-31T09:46:39;3.03;;;2.03;;
16270;SDS011;8243;49.048;8.396;2023-08-31T09:49:04;3.63;;;2.30;;
16270;SDS011;8243;49.048;8.396;2023-08-31T09:51:30;2.80;;;2.50;;
16270;SDS011;8243;49.048;8.396;2023-08-31T09:53:57;5.73;;;2.20;;
16270;SDS011;8243;49.048;8.396;2023-08-31T09:56:25;5.03;;;2.10;;
16270;SDS011;8243;49.048;8.396;2023-08-31T09:58:54;4.47;;;2.47;;
16270;SDS011;8243;49.048;8.396;2023-08-31T10:01:21;5.47;;;2.40;;
16270;SDS011;8243;49.048;8.396;2023-08-31T10:03:47;6.73;;;2.57;;
16270;SDS011;8243;49.048;8.396;2023-08-31T10:06:12;4.47;;;2.20;;
16270;SDS011;8243;49.048;8.396;2023-08-31T10:08:40;5.90;;;2.37;;
16270;SDS011;8243;49.048;8.396;2023-08-31T10:11:06;2.67;;;2.03;;
16270;SDS011;8243;49.048;8.396;2023-08-31T10:13:35;5.63;;;2.40;;
16270;SDS011;8243;49.048;8.396;2023-08-31T10:16:05;5.27;;;2.33;;
16270;SDS011;8243;49.048;8.396;2023-08-31T10:18:32;5.27;;;2.20;;
16270;SDS011;8243;49.048;8.396;2023-08-31T10:21:00;4.27;;;2.37;;
16270;SDS011;8243;49.048;8.396;2023-08-31T10:23:27;6.43;;;2.50;;
16270;SDS011;8243;49.048;8.396;2023-08-31T10:26:00;5.93;;;2.33;;
16270;SDS011;8243;49.048;8.396;2023-08-31T10:28:26;4.63;;;2.20;;
16270;SDS011;8243;49.048;8.396;2023-08-31T10:31:06;3.90;;;2.17;;
16270;SDS011;8243;49.048;8.396;2023-08-31T10:33:34;5.47;;;2.50;;
16270;SDS011;8243;49.048;8.396;2023-08-31T10:36:17;5.47;;;2.40;;
16270;SDS011;8243;49.048;8.396;2023-08-31T10:38:47;6.00;;;2.30;;
16270;SDS011;8243;49.048;8.396;2023-08-31T10:41:33;6.17;;;2.50;;
16270;SDS011;8243;49.048;8.396;2023-08-31T10:43:59;3.97;;;2.47;;
16270;SDS011;8243;49.048;8.396;2023-08-31T10:51:36;5.07;;;2.30;;
16270;SDS011;8243;49.048;8.396;2023-08-31T10:54:04;5.33;;;2.30;;
16270;SDS011;8243;49.048;8.396;2023-08-31T10:59:45;8.20;;;2.40;;
16270;SDS011;8243;49.048;8.396;2023-08-31T11:05:07;6.27;;;2.63;;
16270;SDS011;8243;49.048;8.396;2023-08-31T11:07:41;5.33;;;2.30;;
16270;SDS011;8243;49.048;8.396;2023-08-31T11:10:08;4.10;;;2.23;;
16270;SDS011;8243;49.048;8.396;2023-08-31T11:12:42;5.83;;;2.43;;
16270;SDS011;8243;49.048;8.396;2023-08-31T11:15:13;5.03;;;2.30;;
16270;SDS011;8243;49.048;8.396;2023-08-31T11:17:41;6.73;;;2.40;;
16270;SDS011;8243;49.048;8.396;2023-08-31T11:20:07;4.33;;;2.30;;
16270;SDS011;8243;49.048;8.396;2023-08-31T11:22:38;5.47;;;2.40;;
16270;SDS011;8243;49.048;8.396;2023-08-31T11:25:08;5.17;;;2.63;;
16270;SDS011;8243;49.048;8.396;2023-08-31T11:27:36;6.53;;;2.33;;
16270;SDS011;8243;49.048;8.396;2023-08-31T11:30:03;4.77;;;2.37;;
16270;SDS011;8243;49.048;8.396;2023-08-31T11:32:36;5.47;;;2.20;;
16270;SDS011;8243;49.048;8.396;2023-08-31T11:35:02;2.80;;;1.80;;
16270;SDS011;8243;49.048;8.396;2023-08-31T11:37:28;6.23;;;2.40;;
16270;SDS011;8243;49.048;8.396;2023-08-31T11:39:56;5.03;;;2.40;;
16270;SDS011;8243;49.048;8.396;2023-08-31T11:42:27;3.23;;;1.93;;
16270;SDS011;8243;49.048;8.396;2023-08-31T11:44:52;5.50;;;2.30;;
16270;SDS011;8243;49.048;8.396;2023-08-31T11:47:18;3.80;;;2.40;;
16270;SDS011;8243;49.048;8.396;2023-08-31T11:49:45;4.33;;;2.20;;
16270;SDS011;8243;49.048;8.396;2023-08-31T11:52:12;7.17;;;5.23;;
16270;SDS011;8243;49.048;8.396;2023-08-31T11:54:39;6.03;;;3.30;;
16270;SDS011;8243;49.048;8.396;2023-08-31T11:57:08;6.37;;;2.27;;
16270;SDS011;8243;49.048;8.396;2023-08-31T11:59:35;6.23;;;2.67;;
16270;SDS011;8243;49.048;8.396;2023-08-31T12:02:06;4.10;;;2.20;;
16270;SDS011;8243;49.048;8.396;2023-08-31T12:04:33;7.13;;;3.30;;
16270;SDS011;8243;49.048;8.396;2023-08-31T12:07:08;4.53;;;2.70;;
16270;SDS011;8243;49.048;8.396;2023-08-31T12:09:34;4.63;;;2.50;;
16270;SDS011;8243;49.048;8.396;2023-08-31T12:12:01;5.67;;;2.40;;
16270;SDS011;8243;49.048;8.396;2023-08-31T12:14:27;4.13;;;2.47;;
16270;SDS011;8243;49.048;8.396;2023-08-31T12:17:00;3.67;;;2.07;;
16270;SDS011;8243;49.048;8.396;2023-08-31T12:19:31;4.93;;;2.10;;
16270;SDS011;8243;49.048;8.396;2023-08-31T12:21:58;4.97;;;2.50;;
16270;SDS011;8243;49.048;8.396;2023-08-31T12:24:24;4.90;;;2.47;;
16270;SDS011;8243;49.048;8.396;2023-08-31T12:26:51;4.70;;;2.47;;
16270;SDS011;8243;49.048;8.396;2023-08-31T12:29:20;3.87;;;2.57;;
16270;SDS011;8243;49.048;8.396;2023-08-31T12:31:47;3.23;;;2.20;;
16270;SDS011;8243;49.048;8.396;2023-08-31T12:34:14;5.63;;;2.10;;
16270;SDS011;8243;49.048;8.396;2023-08-31T12:36:40;4.20;;;2.33;;
16270;SDS011;8243;49.048;8.396;2023-08-31T12:39:06;4.33;;;2.27;;
16270;SDS011;8243;49.048;8.396;2023-08-31T12:41:35;6.67;;;2.17;;
16270;SDS011;8243;49.048;8.396;2023-08-31T12:44:07;7.87;;;2.20;;
16270;SDS011;8243;49.048;8.396;2023-08-31T12:46:33;5.50;;;2.50;;
16270;SDS011;8243;49.048;8.396;2023-08-31T12:48:59;5.83;;;2.40;;
16270;SDS011;8243;49.048;8.396;2023-08-31T12:51:26;6.43;;;2.60;;
16270;SDS011;8243;49.048;8.396;2023-08-31T12:53:53;4.23;;;2.33;;
16270;SDS011;8243;49.048;8.396;2023-08-31T12:56:18;3.93;;;2.60;;
16270;SDS011;8243;49.048;8.396;2023-08-31T12:58:48;5.30;;;2.43;;
16270;SDS011;8243;49.048;8.396;2023-08-31T13:01:18;3.73;;;2.43;;
16270;SDS011;8243;49.048;8.396;2023-08-31T13:03:45;6.63;;;2.53;;
16270;SDS011;8243;49.048;8.396;2023-08-31T13:06:12;5.33;;;2.00;;
16270;SDS011;8243;49.048;8.396;2023-08-31T13:08:38;4.93;;;2.30;;
16270;SDS011;8243;49.048;8.396;2023-08-31T13:11:04;4.93;;;2.73;;
16270;SDS011;8243;49.048;8.396;2023-08-31T13:13:30;7.57;;;2.70;;
16270;SDS011;8243;49.048;8.396;2023-08-31T13:15:59;7.63;;;2.60;;
16270;SDS011;8243;49.048;8.396;2023-08-31T13:18:25;4.57;;;2.57;;
16270;SDS011;8243;49.048;8.396;2023-08-31T13:20:51;4.90;;;2.40;;
16270;SDS011;8243;49.048;8.396;2023-08-31T13:23:19;6.20;;;2.50;;
16270;SDS011;8243;49.048;8.396;2023-08-31T13:25:47;5.03;;;2.23;;
16270;SDS011;8243;49.048;8.396;2023-08-31T13:28:13;4.27;;;2.33;;
16270;SDS011;8243;49.048;8.396;2023-08-31T13:30:39;4.97;;;2.20;;
16270;SDS011;8243;49.048;8.396;2023-08-31T13:33:05;6.43;;;2.30;;
16270;SDS011;8243;49.048;8.396;2023-08-31T13:35:32;5.53;;;2.27;;
16270;SDS011;8243;49.048;8.396;2023-08-31T13:37:58;4.33;;;2.60;;
16270;SDS011;8243;49.048;8.396;2023-08-31T13:40:25;7.27;;;2.53;;
16270;SDS011;8243;49.048;8.396;2023-08-31T13:42:54;5.33;;;2.50;;
16270;SDS011;8243;49.048;8.396;2023-08-31T13:45:33;6.50;;;2.83;;
16270;SDS011;8243;49.048;8.396;2023-08-31T13:48:00;7.73;;;2.73;;
16270;SDS011;8243;49.048;8.396;2023-08-31T13:50:26;5.90;;;2.33;;
16270;SDS011;8243;49.048;8.396;2023-08-31T13:52:53;5.83;;;2.37;;
16270;SDS011;8243;49.048;8.396;2023-08-31T13:55:18;5.53;;;2.23;;
16270;SDS011;8243;49.048;8.396;2023-08-31T13:57:44;5.63;;;2.30;;
16270;SDS011;8243;49.048;8.396;2023-08-31T14:00:10;4.17;;;2.40;;
16270;SDS011;8243;49.048;8.396;2023-08-31T14:02:37;4.10;;;2.10;;
16270;SDS011;8243;49.048;8.396;2023-08-31T14:05:04;6.87;;;2.43;;
16270;SDS011;8243;49.048;8.396;2023-08-31T14:07:31;6.07;;;2.77;;
16270;SDS011;8243;49.048;8.396;2023-08-31T14:09:57;7.70;;;2.57;;
16270;SDS011;8243;49.048;8.396;2023-08-31T14:12:23;5.87;;;2.80;;
16270;SDS011;8243;49.048;8.396;2023-08-31T14:14:50;5.20;;;2.30;;
16270;SDS011;8243;49.048;8.396;2023-08-31T14:17:16;4.13;;;1.90;;
16270;SDS011;8243;49.048;8.396;2023-08-31T14:19:42;3.63;;;2.20;;
16270;SDS011;8243;49.048;8.396;2023-08-31T14:22:08;4.60;;;2.23;;
16270;SDS011;8243;49.048;8.396;2023-08-31T14:24:35;3.70;;;2.30;;
16270;SDS011;8243;49.048;8.396;2023-08-31T14:27:02;6.10;;;2.47;;
16270;SDS011;8243;49.048;8.396;2023-08-31T14:29:28;5.03;;;2.37;;
16270;SDS011;8243;49.048;8.396;2023-08-31T14:31:53;3.80;;;2.43;;
16270;SDS011;8243;49.048;8.396;2023-08-31T14:34:20;4.17;;;2.40;;
16270;SDS011;8243;49.048;8.396;2023-08-31T14:36:47;4.80;;;2.40;;
16270;SDS011;8243;49.048;8.396;2023-08-31T14:39:13;4.03;;;2.40;;
16270;SDS011;8243;49.048;8.396;2023-08-31T14:41:40;4.03;;;2.17;;
16270;SDS011;8243;49.048;8.396;2023-08-31T14:44:06;7.00;;;2.53;;
16270;SDS011;8243;49.048;8.396;2023-08-31T14:46:32;5.83;;;2.43;;
16270;SDS011;8243;49.048;8.396;2023-08-31T14:48:58;7.20;;;2.73;;
16270;SDS011;8243;49.048;8.396;2023-08-31T14:51:23;4.70;;;2.50;;
16270;SDS011;8243;49.048;8.396;2023-08-31T14:53:49;7.40;;;2.67;;
16270;SDS011;8243;49.048;8.396;2023-08-31T14:56:15;5.60;;;2.33;;
16270;SDS011;8243;49.048;8.396;2023-08-31T14:58:40;6.60;;;2.60;;
16270;SDS011;8243;49.048;8.396;2023-08-31T15:01:06;7.37;;;2.97;;
16270;SDS011;8243;49.048;8.396;2023-08-31T15:03:31;4.70;;;2.67;;
16270;SDS011;8243;49.048;8.396;2023-08-31T15:05:57;4.93;;;2.30;;
16270;SDS011;8243;49.048;8.396;2023-08-31T15:08:39;8.80;;;2.87;;
16270;SDS011;8243;49.048;8.396;2023-08-31T15:11:06;5.10;;;2.63;;
16270;SDS011;8243;49.048;8.396;2023-08-31T15:13:32;7.03;;;2.47;;
16270;SDS011;8243;49.048;8.396;2023-08-31T15:15:58;4.87;;;2.37;;
16270;SDS011;8243;49.048;8.396;2023-08-31T15:18:29;6.33;;;2.50;;